Portada
METAR-TAF:

METAR-TAF

Aeropuertos :

Aeropuerto de Huesca-Pirineos

Huesca, España

latitud: 42-04-32N, longitud: 0-18-58W, altitud: 539 m

Observación

El informe se hizo hace 30 minutos, a las 05:00 UTC
Viento 12 kt del oeste-noroeste
Temperatura 1°C
Humedad 86%
Presión 1013 hPa
Visibilidad 10 km o más
sin nubes por debajo de 1500 m y sin presencia de cumulonimbus.

METAR: LEHC 040500Z AUTO 29012KT CAVOK 01/M01 Q1013

Hora: 06:30 (05:30 UTC)

Pronóstico

El informe se hizo hace 3 horas y 30 minutos, a las 02:00 UTC
Pronóstico válido del 04 a las 03 UTC al 05 a las 03 UTC
Viento 8 kt del oeste
Visibilidad 10 km o más
Escasas nubes a una altura de 3000 ft

TAF: LEHC 040200Z 0403/0503 27008KT 9999 FEW030 TX12/0414Z TNM00/0406Z

Observaciones y pronósticos meteorológicos de más de 4000 aeropuertos (mensajes METAR y TAF).

Los puntos amarillos y rojos representan las estaciones disponibles.

Ponga el ratón en el punto deseado para ver el nombre de la estación.

Haga clic para ver las observaciones y los pronósticos meteorológicos.

Para cambiar el mapa : haga clic en los botones verdes con una cruz de color negro para hacer un zoom, en el botón verde con un guión para alejar o en las flechas verdes para mapas adyacentes.


METAR-TAF: